Terminal Aerodrome Forecast
Issued by NWS

Home | Current Version | Previous Version | Text Only | Print | Product List | Glossary On
Versions: 1 2 3 4 5 6 7 8 9 10 11 12 13 14 15 16 17 18 19 20 21 22 23 24 25 26 27 28 29 30 31 32 33 34 35 36 37 38 39 40 41 42 43 44 45 46 47 48 49 50
000
FTUS43 KMKX 282047 AAB
TAFENW
TAF AMD
KENW 282047Z 2821/2918 09010KT P6SM VCTS OVC040CB
      TEMPO 2821/2822 2SM RA OVC020
     FM282200 04010KT P6SM VCTS BKN120CB
     FM290000 03009KT P6SM VCTS BKN110CB
     FM290300 03006KT P6SM BKN100
     FM291000 06006KT P6SM BKN060=

USA.gov is the U.S. government's official web portal to all federal, state and local government web resources and services.